Time;durP1;ratioP1;P1;durP2;ratioP2;P2;SDS_P1;SDS_P2;PMS_P1;PMS_P2;Temp;Humidity;BMP_temperature;BMP_pressure;BME280_temperature;BME280_humidity;BME280_pressure;Samples;Min_cycle;Max_cycle;Signal;HPM_P1;HPM_P2
2021/08/25 00:03:36;;;;;;;6.90;4.38;;;;;;;11.28;97.57;102520.44;10453055;28;20056;-80
2021/08/25 00:08:38;;;;;;;6.32;4.53;;;;;;;11.21;98.44;102513.25;10454839;28;20057;-79
2021/08/25 00:13:40;;;;;;;5.32;4.03;;;;;;;11.14;98.80;102508.66;10453031;28;20053;-79
2021/08/25 00:18:41;;;;;;;5.97;4.53;;;;;;;11.09;98.34;102499.81;10455258;28;20044;-79
2021/08/25 00:23:43;;;;;;;6.25;4.53;;;;;;;11.12;98.80;102499.94;10452542;28;20045;-79
2021/08/25 00:28:44;;;;;;;6.63;4.85;;;;;;;11.00;99.61;102500.31;10440946;28;20048;-79
2021/08/25 00:33:46;;;;;;;6.70;4.50;;;;;;;11.07;99.15;102502.34;10452623;28;20099;-80
2021/08/25 00:38:47;;;;;;;9.07;5.55;;;;;;;11.00;100.00;102492.56;10456762;28;20048;-79
2021/08/25 00:43:49;;;;;;;6.38;4.68;;;;;;;10.93;100.00;102490.56;10460010;28;20049;-79
2021/08/25 00:48:51;;;;;;;7.70;5.05;;;;;;;10.88;100.00;102494.66;10460889;28;20056;-80
2021/08/25 00:53:53;;;;;;;8.73;5.32;;;;;;;10.92;100.00;102482.72;10459722;28;20053;-80
2021/08/25 00:58:57;;;;;;;8.70;5.03;;;;;;;10.89;100.00;102478.28;10460814;28;20080;-80
2021/08/25 01:04:03;;;;;;;9.45;6.53;;;;;;;10.85;100.00;102476.44;10459064;28;20053;-80
2021/08/25 01:09:05;;;;;;;7.10;5.65;;;;;;;10.81;100.00;102479.72;10459353;28;20045;-79
2021/08/25 01:14:07;;;;;;;6.85;5.43;;;;;;;10.69;100.00;102480.09;10460417;28;20060;-79
2021/08/25 01:19:13;;;;;;;7.63;5.93;;;;;;;10.66;100.00;102482.53;10459012;28;20057;-79
2021/08/25 01:24:18;;;;;;;9.07;5.90;;;;;;;10.72;100.00;102468.97;10452785;28;20152;-80
2021/08/25 01:29:27;;;;;;;12.98;5.75;;;;;;;10.71;100.00;102465.50;10450967;28;20068;-79
2021/08/25 01:34:28;;;;;;;6.90;5.65;;;;;;;10.67;100.00;102463.63;10458131;28;20430;-80
2021/08/25 01:39:30;;;;;;;9.10;6.30;;;;;;;10.72;100.00;102462.13;10457827;28;20493;-79
2021/08/25 01:44:31;;;;;;;8.45;6.53;;;;;;;10.63;100.00;102453.97;10457647;28;20045;-80
2021/08/25 01:49:33;;;;;;;10.57;6.55;;;;;;;10.52;100.00;102461.28;10458913;28;20079;-80
2021/08/25 01:54:36;;;;;;;8.32;6.05;;;;;;;10.51;100.00;102456.06;10456870;28;20049;-80
2021/08/25 01:59:38;;;;;;;9.80;7.07;;;;;;;10.58;100.00;102452.91;10457333;28;20057;-80
2021/08/25 02:04:40;;;;;;;10.35;7.75;;;;;;;10.45;100.00;102453.22;10456650;28;20048;-79
2021/08/25 02:09:42;;;;;;;10.00;6.80;;;;;;;10.40;100.00;102446.97;10456822;28;20049;-80
2021/08/25 02:14:43;;;;;;;9.25;6.72;;;;;;;10.42;100.00;102437.56;10456216;28;20056;-80
2021/08/25 02:19:45;;;;;;;10.50;7.25;;;;;;;10.47;100.00;102433.47;10458228;28;20049;-79
2021/08/25 02:24:46;;;;;;;9.88;7.40;;;;;;;10.39;100.00;102427.09;10457621;28;20436;-79
2021/08/25 02:29:55;;;;;;;9.13;7.45;;;;;;;10.40;100.00;102427.16;10455615;28;20390;-79
2021/08/25 02:34:57;;;;;;;9.32;7.70;;;;;;;10.28;100.00;102413.72;10455820;28;20045;-79
2021/08/25 02:39:58;;;;;;;8.82;6.72;;;;;;;10.19;100.00;102413.28;10455375;28;20631;-80
2021/08/25 02:45:00;;;;;;;9.90;6.90;;;;;;;10.02;100.00;102413.47;10455178;28;20045;-80
2021/08/25 02:50:02;;;;;;;8.13;6.97;;;;;;;10.08;100.00;102413.72;10455604;28;20057;-80
2021/08/25 02:55:04;;;;;;;9.60;7.50;;;;;;;10.12;100.00;102422.50;10454765;28;20400;-79
2021/08/25 03:00:07;;;;;;;10.98;7.90;;;;;;;10.11;100.00;102423.31;10454783;28;20049;-80
2021/08/25 03:05:09;;;;;;;13.30;8.50;;;;;;;10.11;100.00;102415.56;10454848;28;20109;-79
2021/08/25 03:10:11;;;;;;;18.00;9.63;;;;;;;10.08;100.00;102410.25;10456549;28;20057;-79
2021/08/25 03:15:12;;;;;;;9.63;8.35;;;;;;;10.06;100.00;102406.72;10454300;28;20416;-79
2021/08/25 03:20:14;;;;;;;10.75;8.88;;;;;;;10.05;100.00;102389.47;10456900;28;20083;-80
2021/08/25 03:25:18;;;;;;;12.80;7.88;;;;;;;9.99;100.00;102384.91;10455654;28;20044;-80
2021/08/25 03:30:20;;;;;;;9.73;7.63;;;;;;;9.93;100.00;102386.38;10453697;28;20055;-80
2021/08/25 03:35:21;;;;;;;9.52;6.57;;;;;;;9.70;100.00;102391.44;10453714;28;20049;-79
2021/08/25 03:40:23;;;;;;;8.68;7.05;;;;;;;9.55;100.00;102385.59;10454452;28;20060;-79
2021/08/25 03:45:24;;;;;;;9.40;7.22;;;;;;;9.47;100.00;102380.09;10453704;28;20053;-79
2021/08/25 03:50:26;;;;;;;7.47;6.10;;;;;;;9.59;100.00;102377.16;10453963;28;20076;-79
2021/08/25 03:55:27;;;;;;;9.63;7.60;;;;;;;9.61;100.00;102367.75;10454695;28;20049;-79
2021/08/25 04:00:29;;;;;;;9.73;8.10;;;;;;;9.50;100.00;102363.81;10453821;28;20049;-79
2021/08/25 04:05:31;;;;;;;10.57;6.78;;;;;;;9.31;100.00;102369.00;10454019;28;20170;-79
2021/08/25 04:10:32;;;;;;;7.28;5.95;;;;;;;9.31;100.00;102350.94;10453134;28;20052;-79
2021/08/25 04:15:34;;;;;;;9.73;6.72;;;;;;;9.25;100.00;102348.97;10460105;28;20055;-79
2021/08/25 04:20:36;;;;;;;8.18;6.85;;;;;;;9.18;100.00;102349.47;10464059;28;20064;-79
2021/08/25 04:25:37;;;;;;;9.23;7.90;;;;;;;9.34;100.00;102340.72;10460765;28;20057;-78
2021/08/25 04:30:39;;;;;;;8.25;6.93;;;;;;;9.16;100.00;102349.41;10459583;28;20061;-78
2021/08/25 04:35:40;;;;;;;8.70;6.28;;;;;;;9.08;100.00;102350.78;10458997;28;20068;-78
2021/08/25 04:40:43;;;;;;;7.18;5.43;;;;;;;9.07;100.00;102342.94;10460585;28;20053;-79
2021/08/25 04:45:44;;;;;;;9.63;6.68;;;;;;;9.07;100.00;102336.09;10459891;28;20049;-79
2021/08/25 04:50:46;;;;;;;7.20;5.80;;;;;;;9.02;100.00;102353.97;10461114;28;20045;-79
2021/08/25 04:55:47;;;;;;;6.30;5.57;;;;;;;9.08;100.00;102352.50;10459878;28;20056;-79
2021/08/25 05:00:51;;;;;;;9.35;6.07;;;;;;;8.89;100.00;102353.31;10459525;28;20063;-80
2021/08/25 05:05:53;;;;;;;6.35;5.60;;;;;;;9.11;100.00;102350.03;10446895;28;20091;-79
2021/08/25 05:10:54;;;;;;;11.35;6.65;;;;;;;9.22;100.00;102346.22;10459228;28;20393;-79
2021/08/25 05:15:56;;;;;;;9.23;5.50;;;;;;;9.17;100.00;102335.69;10459594;28;20060;-79
2021/08/25 05:20:58;;;;;;;9.68;6.65;;;;;;;9.16;100.00;102338.22;10461106;28;20139;-79
2021/08/25 05:26:00;;;;;;;8.35;6.35;;;;;;;9.24;100.00;102342.88;10439208;28;20402;-79
2021/08/25 05:31:02;;;;;;;11.98;7.00;;;;;;;9.42;100.00;102335.09;10451643;28;20064;-79
2021/08/25 05:36:04;;;;;;;12.13;7.55;;;;;;;9.47;100.00;102331.00;10457570;28;20052;-79
2021/08/25 05:41:05;;;;;;;11.15;7.18;;;;;;;9.67;100.00;102328.38;10457464;28;20053;-79
2021/08/25 05:46:07;;;;;;;9.38;7.40;;;;;;;9.88;100.00;102338.75;10457515;28;20136;-79
2021/08/25 05:51:08;;;;;;;7.70;6.95;;;;;;;10.03;100.00;102329.91;10458211;28;20084;-80
2021/08/25 05:56:11;;;;;;;8.82;6.90;;;;;;;10.21;100.00;102334.06;10457154;28;20051;-79
2021/08/25 06:01:14;;;;;;;10.20;6.53;;;;;;;10.40;100.00;102335.72;10458498;28;20175;-79
2021/08/25 06:06:16;;;;;;;10.07;8.48;;;;;;;10.71;100.00;102343.84;10456847;28;20437;-79
2021/08/25 06:11:17;;;;;;;8.20;7.40;;;;;;;10.94;100.00;102343.84;10457707;28;20056;-79
2021/08/25 06:16:19;;;;;;;17.80;12.55;;;;;;;11.14;100.00;102342.88;10456040;28;20493;-80
2021/08/25 06:21:20;;;;;;;13.45;11.60;;;;;;;11.46;100.00;102337.97;10456616;28;20056;-80
2021/08/25 06:26:22;;;;;;;17.35;13.60;;;;;;;11.57;100.00;102347.00;10442959;28;20448;-80
2021/08/25 06:31:23;;;;;;;26.48;15.02;;;;;;;11.94;100.00;102344.88;10455243;28;20503;-80
2021/08/25 06:36:25;;;;;;;23.98;19.10;;;;;;;12.10;100.00;102354.06;10454768;28;20052;-80
2021/08/25 06:41:27;;;;;;;23.17;17.65;;;;;;;12.78;99.58;102348.41;10455619;28;20049;-80
2021/08/25 06:46:29;;;;;;;26.10;18.95;;;;;;;12.70;98.14;102350.72;10455481;28;20049;-80
2021/08/25 06:51:30;;;;;;;20.33;16.40;;;;;;;13.25;96.16;102353.28;10455155;28;20045;-80
2021/08/25 06:56:32;;;;;;;19.23;14.43;;;;;;;13.48;94.18;102353.03;10454591;28;20543;-80
2021/08/25 07:01:33;;;;;;;16.75;13.93;;;;;;;13.51;92.74;102353.13;10454274;28;20049;-80
2021/08/25 07:06:36;;;;;;;15.68;12.55;;;;;;;13.62;93.60;102350.81;10454214;28;20084;-81
2021/08/25 07:11:41;;;;;;;14.48;12.68;;;;;;;14.11;91.78;102336.44;10454413;28;20049;-81
2021/08/25 07:16:42;;;;;;;13.60;10.95;;;;;;;14.24;91.57;102338.53;10454195;28;20049;-83
2021/08/25 07:21:44;;;;;;;15.73;11.43;;;;;;;14.95;87.31;102325.34;10457586;28;20044;-82
2021/08/25 07:26:46;;;;;;;10.73;8.73;;;;;;;14.60;88.19;102327.22;10445777;28;20064;-81
2021/08/25 07:31:48;;;;;;;10.75;8.05;;;;;;;14.70;86.23;102321.38;10426452;28;20068;-82
2021/08/25 07:36:49;;;;;;;11.13;8.10;;;;;;;14.99;87.86;102321.97;10453556;28;20067;-82
2021/08/25 07:41:51;;;;;;;9.98;8.05;;;;;;;15.08;84.22;102320.41;10453536;28;20061;-82
2021/08/25 07:46:55;;;;;;;11.30;8.98;;;;;;;16.07;80.27;102316.16;10456822;28;20056;-81
2021/08/25 07:51:58;;;;;;;7.63;6.45;;;;;;;15.70;80.50;102309.44;10461817;28;20048;-81
2021/08/25 07:56:59;;;;;;;8.55;6.40;;;;;;;16.01;82.67;102305.63;10461639;28;20055;-82
2021/08/25 08:02:01;;;;;;;6.88;5.68;;;;;;;16.68;80.16;102304.00;10461282;28;20055;-81
2021/08/25 08:07:03;;;;;;;8.43;5.72;;;;;;;16.35;77.67;102304.41;10462163;28;20084;-82
2021/08/25 08:12:04;;;;;;;5.72;4.57;;;;;;;16.47;75.41;102295.00;10460752;28;20045;-81
2021/08/25 08:17:06;;;;;;;7.20;4.65;;;;;;;17.11;74.05;102295.81;10464404;28;20067;-81
2021/08/25 08:22:08;;;;;;;4.78;3.38;;;;;;;17.13;70.16;102289.78;10460897;28;20056;-81
2021/08/25 08:27:10;;;;;;;8.45;3.70;;;;;;;17.67;66.34;102290.28;10446645;28;20681;-81
2021/08/25 08:32:12;;;;;;;5.45;3.40;;;;;;;17.67;66.56;102285.94;10459833;28;20057;-81
2021/08/25 08:37:13;;;;;;;4.13;3.30;;;;;;;17.87;65.92;102285.22;10459607;28;20045;-81
2021/08/25 08:42:29;;;;;;;7.85;3.28;;;;;;;18.33;64.36;102282.97;10459950;28;20056;-82
2021/08/25 08:47:31;;;;;;;3.92;2.67;;;;;;;18.64;62.39;102281.38;10459730;28;20136;-81
2021/08/25 08:52:32;;;;;;;6.05;3.70;;;;;;;18.58;62.82;102278.72;10458993;28;20045;-81
2021/08/25 08:57:34;;;;;;;5.05;2.95;;;;;;;18.63;62.53;102270.00;10458240;28;20053;-81
2021/08/25 09:02:44;;;;;;;6.55;3.42;;;;;;;19.06;58.61;102263.22;10459114;28;20049;-80
2021/08/25 09:07:53;;;;;;;3.50;2.42;;;;;;;19.09;57.70;102245.72;10458517;28;20063;-81
2021/08/25 09:13:00;;;;;;;3.27;2.63;;;;;;;19.49;56.60;102236.13;10458717;28;20499;-81
2021/08/25 09:18:07;;;;;;;4.22;2.72;;;;;;;19.47;53.87;102241.41;10459408;28;20488;-80
2021/08/25 09:23:13;;;;;;;4.82;3.35;;;;;;;19.53;56.76;102243.16;10459014;28;20064;-80
2021/08/25 09:28:35;;;;;;;5.20;2.65;;;;;;;20.18;52.86;102239.59;10445855;28;20139;-81
2021/08/25 09:33:41;;;;;;;4.82;2.25;;;;;;;20.33;52.25;102234.31;10446076;28;20057;-80
2021/08/25 09:39:01;;;;;;;3.53;2.60;;;;;;;20.21;52.41;102233.47;10457677;28;20520;-81
2021/08/25 09:44:15;;;;;;;5.03;3.22;;;;;;;20.41;54.15;102226.38;10457445;28;20056;-81
2021/08/25 09:49:32;;;;;;;5.38;3.70;;;;;;;21.05;51.94;102231.38;10456957;28;20056;-80
2021/08/25 09:54:34;;;;;;;9.90;3.90;;;;;;;21.02;50.36;102225.25;10456899;28;20045;-81
2021/08/25 09:59:35;;;;;;;5.20;3.58;;;;;;;21.28;51.66;102223.31;10456435;28;20515;-82
2021/08/25 10:04:37;;;;;;;10.43;3.38;;;;;;;21.66;52.53;102215.13;10456666;28;20045;-82
2021/08/25 10:09:38;;;;;;;5.32;3.78;;;;;;;20.91;52.91;102225.31;10456703;28;20056;-79
2021/08/25 10:14:40;;;;;;;3.30;3.00;;;;;;;21.49;50.62;102217.03;10456245;28;20044;-81
2021/08/25 10:19:42;;;;;;;5.38;3.75;;;;;;;21.41;50.78;102209.19;10458419;28;20533;-80
2021/08/25 10:24:52;;;;;;;5.32;3.80;;;;;;;21.25;49.50;102204.03;10456792;28;20041;-80
2021/08/25 10:30:07;;;;;;;5.22;4.03;;;;;;;21.92;49.72;102195.56;10456723;28;20060;-81
2021/08/25 10:35:29;;;;;;;4.50;3.85;;;;;;;21.82;49.01;102178.97;10458936;28;20048;-81
2021/08/25 10:40:32;;;;;;;7.97;3.72;;;;;;;22.53;47.87;102154.44;10455457;28;20513;-81
2021/08/25 10:45:43;;;;;;;6.88;4.25;;;;;;;22.42;49.90;102152.81;10454812;28;20085;-81
2021/08/25 10:50:56;;;;;;;7.28;5.68;;;;;;;22.59;49.96;102149.06;10456026;28;20053;-81
2021/08/25 10:56:13;;;;;;;6.32;4.55;;;;;;;22.70;45.91;102149.78;10454528;28;20072;-82
2021/08/25 11:01:31;;;;;;;7.28;4.13;;;;;;;23.19;46.80;102138.47;10444138;28;20144;-82
2021/08/25 11:06:44;;;;;;;7.82;5.90;;;;;;;22.88;50.59;102141.63;10454182;28;20045;-81
2021/08/25 11:12:08;;;;;;;6.43;5.30;;;;;;;23.05;48.92;102141.34;10454235;28;20048;-81
2021/08/25 11:17:21;;;;;;;8.75;7.85;;;;;;;22.78;53.10;102137.34;10454308;28;20057;-82
2021/08/25 11:22:40;;;;;;;8.00;7.20;;;;;;;21.91;54.42;102141.97;10454209;28;20084;-81
2021/08/25 11:27:51;;;;;;;6.03;5.43;;;;;;;21.90;54.57;102120.91;10455029;28;20102;-81
2021/08/25 11:33:11;;;;;;;6.68;4.80;;;;;;;22.32;48.08;102121.28;10453708;28;20052;-82
2021/08/25 11:38:18;;;;;;;5.38;4.53;;;;;;;22.14;49.21;102111.88;10453678;28;20410;-81
2021/08/25 11:43:21;;;;;;;4.63;3.75;;;;;;;23.01;46.84;102103.56;10453620;28;20052;-81
2021/08/25 11:48:28;;;;;;;7.60;3.60;;;;;;;22.70;45.06;102091.72;10453197;28;20053;-81
2021/08/25 11:53:32;;;;;;;6.15;3.40;;;;;;;22.63;47.96;102074.22;10453330;28;20084;-81
2021/08/25 11:58:34;;;;;;;3.55;3.00;;;;;;;23.09;46.18;102071.75;10453717;28;20401;-81
2021/08/25 12:03:40;;;;;;;7.03;4.25;;;;;;;22.57;47.93;102080.47;10453156;28;20045;-81
2021/08/25 12:08:44;;;;;;;4.47;3.70;;;;;;;22.43;47.12;102067.50;10452634;28;20504;-82
2021/08/25 12:13:48;;;;;;;9.32;4.82;;;;;;;22.34;49.17;102051.78;10452529;28;20045;-81
2021/08/25 12:18:55;;;;;;;6.75;4.00;;;;;;;22.27;49.60;102044.00;10454929;28;20049;-81
2021/08/25 12:24:11;;;;;;;5.10;3.72;;;;;;;22.15;52.45;102034.50;10452838;28;20468;-81
2021/08/25 12:29:13;;;;;;;5.95;4.50;;;;;;;22.23;52.36;102028.22;10452472;28;20048;-81
2021/08/25 12:34:16;;;;;;;4.45;3.88;;;;;;;21.69;56.67;102040.34;10457384;28;20075;-80
2021/08/25 12:39:24;;;;;;;5.10;3.60;;;;;;;21.64;55.14;102035.13;10460229;28;20052;-81
2021/08/25 12:44:26;;;;;;;6.65;4.07;;;;;;;21.54;55.48;102036.13;10460309;28;20045;-81
2021/08/25 12:49:30;;;;;;;3.67;2.58;;;;;;;21.29;58.48;102026.72;10460050;28;20088;-81
2021/08/25 12:54:31;;;;;;;3.47;2.42;;;;;;;21.88;56.92;102025.16;10459597;28;20048;-80
2021/08/25 12:59:33;;;;;;;3.35;2.33;;;;;;;22.16;54.01;102015.16;10459748;28;20053;-82
2021/08/25 13:04:35;;;;;;;4.20;2.13;;;;;;;21.89;54.86;102004.06;10459327;28;20052;-82
2021/08/25 13:09:37;;;;;;;3.97;2.40;;;;;;;21.60;55.40;102008.84;10460138;28;20051;-81
2021/08/25 13:15:06;;;;;;;3.70;1.88;;;;;;;22.00;52.42;101993.38;10458867;28;20049;-82
2021/08/25 13:20:13;;;;;;;2.87;1.73;;;;;;;21.93;54.99;101986.44;10461863;28;20192;-81
2021/08/25 13:25:17;;;;;;;4.53;2.22;;;;;;;21.29;56.87;101993.41;10458644;28;20061;-81
2021/08/25 13:30:19;;;;;;;2.90;1.73;;;;;;;21.78;56.99;101976.97;10458279;28;20060;-82
2021/08/25 13:35:20;;;;;;;4.30;2.25;;;;;;;21.54;53.67;101967.66;10458031;28;20106;-81
2021/08/25 13:40:22;;;;;;;1.80;1.50;;;;;;;21.41;57.92;101964.28;10459525;28;20052;-82
2021/08/25 13:45:24;;;;;;;4.63;2.30;;;;;;;21.13;57.98;101963.72;10457463;28;20512;-83
2021/08/25 13:50:25;;;;;;;2.63;1.90;;;;;;;21.42;58.18;101958.13;10457965;28;20058;-81
2021/08/25 13:55:27;;;;;;;4.13;2.03;;;;;;;20.91;59.60;101949.03;10457810;28;20049;-80
2021/08/25 14:00:29;;;;;;;2.70;1.98;;;;;;;21.25;58.81;101943.41;10458288;28;20060;-80
2021/08/25 14:05:31;;;;;;;2.90;2.05;;;;;;;21.15;56.63;101940.88;10456578;28;20114;-81
2021/08/25 14:10:32;;;;;;;2.28;1.77;;;;;;;20.71;58.31;101937.84;10458243;28;20072;-80
2021/08/25 14:15:37;;;;;;;4.05;2.08;;;;;;;20.52;57.01;101922.22;10456037;28;20110;-82
2021/08/25 14:20:39;;;;;;;3.70;2.33;;;;;;;20.96;57.77;101922.69;10456516;28;20074;-81
2021/08/25 14:25:40;;;;;;;3.15;2.30;;;;;;;20.62;55.65;101925.66;10442839;28;20049;-81
2021/08/25 14:30:42;;;;;;;4.10;1.70;;;;;;;20.85;56.46;101913.13;10456046;28;20139;-81
2021/08/25 14:35:44;;;;;;;4.57;2.08;;;;;;;20.71;57.10;101908.91;10455520;28;20067;-81
2021/08/25 14:40:46;;;;;;;3.63;2.03;;;;;;;20.56;57.18;101886.25;10455667;28;20064;-80
2021/08/25 14:45:48;;;;;;;2.53;1.23;;;;;;;20.55;54.63;101872.25;10455963;28;20440;-81
2021/08/25 14:50:49;;;;;;;2.05;1.25;;;;;;;20.59;56.58;101868.72;10455277;28;20045;-83
2021/08/25 14:55:51;;;;;;;5.53;1.50;;;;;;;20.79;57.18;101857.97;10454107;28;20045;-81
2021/08/25 15:00:52;;;;;;;5.88;1.55;;;;;;;20.48;58.54;101861.78;10455297;28;20056;-82
2021/08/25 15:05:56;;;;;;;1.83;1.55;;;;;;;20.46;60.01;101851.28;10454854;28;20057;-81
2021/08/25 15:11:00;;;;;;;1.67;1.10;;;;;;;20.31;59.69;101852.28;10454487;28;20053;-82
2021/08/25 15:16:02;;;;;;;3.43;1.40;;;;;;;20.27;60.42;101853.19;10454914;28;20048;-82
2021/08/25 15:21:04;;;;;;;2.88;1.58;;;;;;;20.36;59.66;101850.50;10455757;28;20831;-83
2021/08/25 15:26:05;;;;;;;1.77;1.23;;;;;;;20.06;61.15;101851.63;10442793;28;20059;-82
2021/08/25 15:31:08;;;;;;;1.05;0.93;;;;;;;20.11;62.97;101848.97;10453424;28;20092;-83
2021/08/25 15:36:13;;;;;;;2.90;1.13;;;;;;;19.91;63.67;101848.22;10453772;28;20049;-82
2021/08/25 15:41:16;;;;;;;;;;;;;;;20.00;64.21;101843.78;10455655;28;20390;-82
2021/08/25 15:46:20;;;;;;;2.47;1.00;;;;;;;19.91;64.87;101845.59;10454944;28;20360;-83
2021/08/25 15:51:21;;;;;;;0.95;0.70;;;;;;;19.78;65.88;101845.69;10453597;28;20447;-82
2021/08/25 15:56:23;;;;;;;1.40;0.70;;;;;;;19.81;65.83;101835.19;10454771;28;20052;-82
2021/08/25 16:01:24;;;;;;;3.03;0.60;;;;;;;19.90;67.15;101828.97;10453555;28;20072;-82
2021/08/25 16:06:27;;;;;;;0.95;0.68;;;;;;;19.61;65.81;101818.69;10454484;28;20052;-83
2021/08/25 16:11:28;;;;;;;0.80;0.47;;;;;;;19.78;66.00;101826.44;10462649;28;20052;-82
2021/08/25 16:16:30;;;;;;;1.65;0.30;;;;;;;19.51;67.10;101825.75;10461141;28;20045;-81
2021/08/25 16:21:32;;;;;;;0.90;0.20;;;;;;;19.37;65.60;101822.31;10462097;28;20053;-82
2021/08/25 16:26:35;;;;;;;0.20;0.20;;;;;;;19.44;66.51;101805.66;10462242;28;20049;-82
2021/08/25 16:31:36;;;;;;;0.50;0.13;;;;;;;19.20;67.24;101811.91;10460605;28;20053;-82
2021/08/25 16:36:38;;;;;;;0.20;0.20;;;;;;;19.25;69.50;101804.91;10459985;28;20049;-81
2021/08/25 16:41:39;;;;;;;0.20;0.17;;;;;;;19.38;68.55;101797.81;10459930;28;20056;-82
2021/08/25 16:46:41;;;;;;;0.28;0.28;;;;;;;19.00;69.75;101785.78;10459862;28;20048;-82
2021/08/25 16:51:42;;;;;;;0.70;0.40;;;;;;;19.02;70.09;101793.66;10459547;28;20052;-80
2021/08/25 16:56:47;;;;;;;1.30;0.55;;;;;;;18.84;71.29;101798.97;10460332;28;20135;-81
2021/08/25 17:01:48;;;;;;;3.00;0.40;;;;;;;18.37;71.73;101774.59;10459789;28;20512;-81
2021/08/25 17:06:50;;;;;;;0.70;0.30;;;;;;;18.52;72.41;101782.44;10459396;28;20049;-81
2021/08/25 17:11:52;;;;;;;2.05;0.40;;;;;;;18.40;72.97;101771.13;10458612;28;20460;-82
2021/08/25 17:16:53;;;;;;;4.55;0.80;;;;;;;18.12;74.81;101758.06;10458748;28;20128;-82
2021/08/25 17:21:57;;;;;;;3.30;0.77;;;;;;;17.93;74.67;101752.00;10461398;28;20048;-80
2021/08/25 17:26:59;;;;;;;4.20;2.00;;;;;;;17.90;75.48;101745.88;10459240;28;20052;-80
2021/08/25 17:32:01;;;;;;;3.15;0.50;;;;;;;17.80;74.98;101758.09;10459450;28;20303;-81
2021/08/25 17:37:04;;;;;;;0.77;0.50;;;;;;;17.64;73.94;101767.69;10458527;28;20420;-81
2021/08/25 17:42:06;;;;;;;0.47;0.40;;;;;;;17.59;71.64;101774.66;10458221;28;20060;-80
2021/08/25 17:47:12;;;;;;;0.82;0.50;;;;;;;17.56;71.67;101758.94;10459057;28;20415;-80
2021/08/25 17:52:14;;;;;;;0.47;0.40;;;;;;;17.47;71.16;101757.19;10457399;28;20049;-81
2021/08/25 17:57:17;;;;;;;2.58;0.80;;;;;;;17.42;71.87;101763.28;10456945;28;20059;-82
2021/08/25 18:02:19;;;;;;;0.98;0.80;;;;;;;17.33;72.78;101751.06;10457374;28;20057;-81
2021/08/25 18:07:21;;;;;;;2.00;0.90;;;;;;;17.21;72.93;101751.03;10456921;28;20055;-82
2021/08/25 18:12:22;;;;;;;2.20;1.08;;;;;;;17.03;74.52;101751.88;10456362;28;20063;-79
2021/08/25 18:17:25;;;;;;;1.20;0.90;;;;;;;16.88;74.51;101747.47;10459773;28;20048;-81
2021/08/25 18:22:27;;;;;;;1.70;1.17;;;;;;;16.87;75.84;101742.22;10456704;28;20059;-81
2021/08/25 18:27:29;;;;;;;1.30;1.20;;;;;;;16.74;76.32;101738.72;10443049;28;20048;-82
2021/08/25 18:32:30;;;;;;;2.15;1.55;;;;;;;16.67;78.35;101735.13;10454610;28;20052;-80
2021/08/25 18:37:32;;;;;;;3.13;2.05;;;;;;;16.77;78.56;101735.22;10455829;28;20049;-81
2021/08/25 18:42:34;;;;;;;2.40;1.70;;;;;;;16.63;79.62;101732.53;10455437;28;20049;-80
2021/08/25 18:47:36;;;;;;;2.90;1.83;;;;;;;16.58;80.43;101719.44;10455063;28;20045;-81
2021/08/25 18:52:38;;;;;;;2.63;1.65;;;;;;;16.55;80.93;101732.47;10455023;28;20513;-81
2021/08/25 18:57:40;;;;;;;4.10;2.17;;;;;;;16.49;82.16;101721.13;10456152;28;20049;-82
2021/08/25 19:02:42;;;;;;;2.50;2.10;;;;;;;16.29;83.46;101715.81;10454965;28;20072;-83
2021/08/25 19:07:43;;;;;;;2.65;1.60;;;;;;;16.35;83.73;101702.81;10454604;28;20049;-83
2021/08/25 19:12:45;;;;;;;7.20;1.80;;;;;;;16.19;85.26;101706.19;10454467;28;20140;-82
2021/08/25 19:17:47;;;;;;;2.17;1.40;;;;;;;16.22;85.62;101701.84;10458344;28;20489;-85
2021/08/25 19:22:49;;;;;;;1.83;1.73;;;;;;;15.99;87.28;101708.66;10454731;28;20057;-83
2021/08/25 19:27:51;;;;;;;2.58;1.83;;;;;;;15.98;89.04;101699.09;10440400;28;20055;-83
2021/08/25 19:32:53;;;;;;;3.08;2.00;;;;;;;15.67;94.45;101711.06;10453646;28;20064;-79
2021/08/25 19:37:59;;;;;;;2.80;2.45;;;;;;;15.55;96.40;101710.06;10455404;28;20067;-80
2021/08/25 19:43:00;;;;;;;3.03;2.03;;;;;;;15.62;96.46;101713.59;10453865;28;20056;-81
2021/08/25 19:48:03;;;;;;;2.70;2.13;;;;;;;15.44;97.23;101710.84;10453423;28;20493;-81
2021/08/25 19:53:05;;;;;;;3.05;2.05;;;;;;;15.43;97.48;101706.47;10455456;28;20049;-78
2021/08/25 19:58:07;;;;;;;2.72;2.05;;;;;;;15.35;99.02;101707.28;10453523;28;20051;-79
2021/08/25 20:03:08;;;;;;;2.78;2.17;;;;;;;15.34;99.11;101695.09;10453794;28;20048;-77
2021/08/25 20:08:10;;;;;;;2.88;2.15;;;;;;;15.37;98.93;101695.16;10454118;28;20140;-80
2021/08/25 20:13:11;;;;;;;4.40;2.53;;;;;;;15.36;100.00;101682.06;10454455;28;20505;-78
2021/08/25 20:18:13;;;;;;;4.60;2.78;;;;;;;15.32;100.00;101683.78;10453735;28;20045;-80
2021/08/25 20:23:15;;;;;;;3.35;2.33;;;;;;;15.34;99.74;101679.47;10453182;28;20083;-79
2021/08/25 20:28:17;;;;;;;5.85;3.05;;;;;;;15.33;100.00;101676.84;10454587;28;20471;-80
2021/08/25 20:33:18;;;;;;;4.10;2.38;;;;;;;15.28;100.00;101682.00;10453637;28;20099;-79
2021/08/25 20:38:20;;;;;;;2.75;2.40;;;;;;;15.20;100.00;101680.19;10454513;28;20390;-78
2021/08/25 20:43:21;;;;;;;4.80;3.30;;;;;;;15.23;100.00;101668.06;10452756;28;20061;-78
2021/08/25 20:48:23;;;;;;;5.80;3.08;;;;;;;15.22;100.00;101673.28;10452712;28;20120;-78
2021/08/25 20:53:25;;;;;;;3.72;2.97;;;;;;;15.16;100.00;101657.56;10452880;28;20544;-78
2021/08/25 20:58:27;;;;;;;3.65;2.78;;;;;;;15.35;100.00;101649.91;10459847;28;20128;-79
2021/08/25 21:03:29;;;;;;;4.80;3.10;;;;;;;15.24;100.00;101630.69;10461327;28;20052;-78
2021/08/25 21:08:30;;;;;;;4.72;3.20;;;;;;;15.16;100.00;101629.78;10459916;28;20057;-79
2021/08/25 21:13:32;;;;;;;5.25;3.85;;;;;;;15.16;100.00;101618.47;10459170;28;20057;-78
2021/08/25 21:18:33;;;;;;;5.68;3.63;;;;;;;15.19;100.00;101618.47;10461579;28;20052;-78
2021/08/25 21:23:35;;;;;;;4.47;3.53;;;;;;;15.11;100.00;101618.44;10460324;28;20055;-77
2021/08/25 21:28:37;;;;;;;6.18;3.58;;;;;;;15.11;100.00;101615.81;10445423;28;20056;-77
2021/08/25 21:33:39;;;;;;;5.43;3.83;;;;;;;15.04;100.00;101603.59;10458212;28;20061;-76
2021/08/25 21:38:41;;;;;;;10.85;3.97;;;;;;;14.97;100.00;101605.25;10460062;28;20053;-77
2021/08/25 21:43:42;;;;;;;5.53;3.70;;;;;;;14.99;100.00;101600.09;10458572;28;20060;-77
2021/08/25 21:48:44;;;;;;;5.97;3.40;;;;;;;15.03;100.00;101581.00;10459093;28;20053;-75
2021/08/25 21:53:46;;;;;;;7.00;4.20;;;;;;;15.02;100.00;101579.25;10458680;28;20124;-76
2021/08/25 21:58:49;;;;;;;4.53;3.15;;;;;;;14.99;100.00;101587.94;10458871;28;20185;-76
2021/08/25 22:03:50;;;;;;;5.60;2.88;;;;;;;15.01;100.00;101577.50;10459441;28;20132;-77
2021/08/25 22:08:52;;;;;;;3.35;2.70;;;;;;;15.01;100.00;101575.78;10457565;28;20063;-78
2021/08/25 22:13:54;;;;;;;7.07;2.75;;;;;;;15.03;100.00;101578.38;10456762;28;20051;-77
2021/08/25 22:18:55;;;;;;;6.50;2.90;;;;;;;15.04;100.00;101569.72;10459111;28;20131;-78
2021/08/25 22:23:57;;;;;;;3.55;2.35;;;;;;;15.00;100.00;101571.44;10457467;28;20044;-76
2021/08/25 22:29:00;;;;;;;3.80;2.22;;;;;;;15.03;100.00;101560.13;10457192;28;20045;-78
2021/08/25 22:34:02;;;;;;;5.20;2.67;;;;;;;15.02;100.00;101568.81;10456336;28;20048;-78
2021/08/25 22:39:03;;;;;;;5.68;2.58;;;;;;;15.00;100.00;101550.56;10457561;28;20052;-77
2021/08/25 22:44:05;;;;;;;6.30;2.22;;;;;;;14.94;100.00;101534.91;10455915;28;20501;-78
2021/08/25 22:49:06;;;;;;;4.40;2.20;;;;;;;15.01;100.00;101531.47;10455432;28;20103;-77
2021/08/25 22:54:12;;;;;;;3.85;2.20;;;;;;;14.92;100.00;101539.22;10455500;28;20052;-78
2021/08/25 22:59:13;;;;;;;3.53;2.20;;;;;;;14.99;100.00;101522.78;10455894;28;20063;-78
2021/08/25 23:04:15;;;;;;;4.97;2.70;;;;;;;15.03;100.00;101521.94;10455220;28;20052;-77
2021/08/25 23:09:16;;;;;;;7.00;2.30;;;;;;;15.00;100.00;101508.00;10455246;28;20057;-79